sensor_id;sensor_type;location;lat;lon;timestamp;P1;durP1;ratioP1;P2;durP2;ratioP2
1699;SDS011;847;48.058;7.810;2022-11-30T00:00:48;26.20;;;18.30;;
1699;SDS011;847;48.058;7.810;2022-11-30T00:03:23;30.47;;;18.40;;
1699;SDS011;847;48.058;7.810;2022-11-30T00:05:54;31.53;;;18.03;;
1699;SDS011;847;48.058;7.810;2022-11-30T00:08:21;32.23;;;20.53;;
1699;SDS011;847;48.058;7.810;2022-11-30T00:10:50;28.70;;;18.00;;
1699;SDS011;847;48.058;7.810;2022-11-30T00:13:17;32.27;;;17.93;;
1699;SDS011;847;48.058;7.810;2022-11-30T00:15:45;24.73;;;15.37;;
1699;SDS011;847;48.058;7.810;2022-11-30T00:18:11;26.30;;;17.47;;
1699;SDS011;847;48.058;7.810;2022-11-30T00:20:42;25.53;;;16.87;;
1699;SDS011;847;48.058;7.810;2022-11-30T00:23:10;30.60;;;18.30;;
1699;SDS011;847;48.058;7.810;2022-11-30T00:25:38;27.27;;;17.87;;
1699;SDS011;847;48.058;7.810;2022-11-30T00:28:12;30.57;;;17.23;;
1699;SDS011;847;48.058;7.810;2022-11-30T00:41:02;24.13;;;14.70;;
1699;SDS011;847;48.058;7.810;2022-11-30T00:43:29;25.93;;;15.80;;
1699;SDS011;847;48.058;7.810;2022-11-30T00:45:56;25.43;;;16.10;;
1699;SDS011;847;48.058;7.810;2022-11-30T00:48:24;30.30;;;16.67;;
1699;SDS011;847;48.058;7.810;2022-11-30T00:50:51;25.83;;;16.07;;
1699;SDS011;847;48.058;7.810;2022-11-30T00:53:18;25.20;;;16.70;;
1699;SDS011;847;48.058;7.810;2022-11-30T00:55:46;27.77;;;17.67;;
1699;SDS011;847;48.058;7.810;2022-11-30T00:58:14;30.73;;;17.97;;
1699;SDS011;847;48.058;7.810;2022-11-30T01:00:41;30.63;;;19.10;;
1699;SDS011;847;48.058;7.810;2022-11-30T01:03:08;24.53;;;16.93;;
1699;SDS011;847;48.058;7.810;2022-11-30T01:05:35;23.40;;;15.70;;
1699;SDS011;847;48.058;7.810;2022-11-30T01:08:04;25.20;;;16.30;;
1699;SDS011;847;48.058;7.810;2022-11-30T01:16:08;28.60;;;17.30;;
1699;SDS011;847;48.058;7.810;2022-11-30T01:18:37;29.33;;;17.90;;
1699;SDS011;847;48.058;7.810;2022-11-30T01:21:04;32.17;;;18.90;;
1699;SDS011;847;48.058;7.810;2022-11-30T01:23:32;31.30;;;19.00;;
1699;SDS011;847;48.058;7.810;2022-11-30T01:25:59;40.40;;;20.57;;
1699;SDS011;847;48.058;7.810;2022-11-30T01:28:26;40.30;;;20.97;;
1699;SDS011;847;48.058;7.810;2022-11-30T01:30:57;34.30;;;20.50;;
1699;SDS011;847;48.058;7.810;2022-11-30T01:33:25;43.70;;;19.93;;
1699;SDS011;847;48.058;7.810;2022-11-30T01:36:02;47.17;;;20.10;;
1699;SDS011;847;48.058;7.810;2022-11-30T01:38:32;42.33;;;19.47;;
1699;SDS011;847;48.058;7.810;2022-11-30T01:41:00;31.63;;;18.37;;
1699;SDS011;847;48.058;7.810;2022-11-30T01:43:37;27.63;;;18.40;;
1699;SDS011;847;48.058;7.810;2022-11-30T01:46:13;32.40;;;18.57;;
1699;SDS011;847;48.058;7.810;2022-11-30T01:48:48;33.73;;;19.00;;
1699;SDS011;847;48.058;7.810;2022-11-30T01:51:21;31.47;;;18.97;;
1699;SDS011;847;48.058;7.810;2022-11-30T01:53:48;33.80;;;22.40;;
1699;SDS011;847;48.058;7.810;2022-11-30T01:56:15;32.47;;;19.87;;
1699;SDS011;847;48.058;7.810;2022-11-30T01:58:42;56.87;;;21.10;;
1699;SDS011;847;48.058;7.810;2022-11-30T02:01:09;29.67;;;18.80;;
1699;SDS011;847;48.058;7.810;2022-11-30T02:03:38;32.13;;;19.70;;
1699;SDS011;847;48.058;7.810;2022-11-30T02:06:10;32.40;;;20.03;;
1699;SDS011;847;48.058;7.810;2022-11-30T02:08:38;30.13;;;19.40;;
1699;SDS011;847;48.058;7.810;2022-11-30T02:11:23;27.30;;;19.07;;
1699;SDS011;847;48.058;7.810;2022-11-30T02:16:46;28.40;;;19.03;;
1699;SDS011;847;48.058;7.810;2022-11-30T02:19:28;27.30;;;18.40;;
1699;SDS011;847;48.058;7.810;2022-11-30T02:22:18;27.37;;;17.93;;
1699;SDS011;847;48.058;7.810;2022-11-30T02:24:55;27.67;;;18.10;;
1699;SDS011;847;48.058;7.810;2022-11-30T02:27:34;27.93;;;18.53;;
1699;SDS011;847;48.058;7.810;2022-11-30T02:30:12;25.03;;;17.50;;
1699;SDS011;847;48.058;7.810;2022-11-30T02:32:42;25.87;;;17.90;;
1699;SDS011;847;48.058;7.810;2022-11-30T02:35:13;27.50;;;16.67;;
1699;SDS011;847;48.058;7.810;2022-11-30T02:37:42;30.03;;;20.23;;
1699;SDS011;847;48.058;7.810;2022-11-30T02:40:12;25.90;;;18.57;;
1699;SDS011;847;48.058;7.810;2022-11-30T02:42:41;27.83;;;17.63;;
1699;SDS011;847;48.058;7.810;2022-11-30T02:45:08;24.77;;;17.53;;
1699;SDS011;847;48.058;7.810;2022-11-30T02:47:39;27.00;;;18.13;;
1699;SDS011;847;48.058;7.810;2022-11-30T02:50:10;22.60;;;17.57;;
1699;SDS011;847;48.058;7.810;2022-11-30T02:52:40;25.47;;;17.50;;
1699;SDS011;847;48.058;7.810;2022-11-30T02:55:08;21.33;;;15.90;;
1699;SDS011;847;48.058;7.810;2022-11-30T02:57:37;24.67;;;16.30;;
1699;SDS011;847;48.058;7.810;2022-11-30T03:00:18;22.63;;;15.83;;
1699;SDS011;847;48.058;7.810;2022-11-30T03:02:46;26.10;;;17.13;;
1699;SDS011;847;48.058;7.810;2022-11-30T03:05:13;24.10;;;16.20;;
1699;SDS011;847;48.058;7.810;2022-11-30T03:10:22;22.00;;;15.10;;
1699;SDS011;847;48.058;7.810;2022-11-30T03:12:49;23.50;;;15.70;;
1699;SDS011;847;48.058;7.810;2022-11-30T03:15:16;23.70;;;15.63;;
1699;SDS011;847;48.058;7.810;2022-11-30T03:17:43;24.07;;;15.77;;
1699;SDS011;847;48.058;7.810;2022-11-30T03:20:12;24.43;;;16.30;;
1699;SDS011;847;48.058;7.810;2022-11-30T03:22:39;24.27;;;15.40;;
1699;SDS011;847;48.058;7.810;2022-11-30T03:25:06;23.03;;;15.97;;
1699;SDS011;847;48.058;7.810;2022-11-30T03:27:34;21.23;;;15.23;;
1699;SDS011;847;48.058;7.810;2022-11-30T03:30:01;22.57;;;14.93;;
1699;SDS011;847;48.058;7.810;2022-11-30T03:32:28;22.80;;;15.33;;
1699;SDS011;847;48.058;7.810;2022-11-30T03:34:56;19.50;;;14.17;;
1699;SDS011;847;48.058;7.810;2022-11-30T03:37:24;23.67;;;14.80;;
1699;SDS011;847;48.058;7.810;2022-11-30T03:39:51;20.03;;;14.10;;
1699;SDS011;847;48.058;7.810;2022-11-30T03:42:18;19.50;;;13.80;;
1699;SDS011;847;48.058;7.810;2022-11-30T03:44:45;21.43;;;15.20;;
1699;SDS011;847;48.058;7.810;2022-11-30T03:47:12;19.93;;;14.57;;
1699;SDS011;847;48.058;7.810;2022-11-30T03:49:39;21.93;;;14.10;;
1699;SDS011;847;48.058;7.810;2022-11-30T03:52:06;23.80;;;14.67;;
1699;SDS011;847;48.058;7.810;2022-11-30T03:54:34;19.00;;;12.80;;
1699;SDS011;847;48.058;7.810;2022-11-30T03:57:01;19.37;;;13.97;;
1699;SDS011;847;48.058;7.810;2022-11-30T03:59:28;18.03;;;13.63;;
1699;SDS011;847;48.058;7.810;2022-11-30T04:01:56;17.57;;;12.80;;
1699;SDS011;847;48.058;7.810;2022-11-30T04:04:23;16.70;;;12.43;;
1699;SDS011;847;48.058;7.810;2022-11-30T04:06:51;18.40;;;12.43;;
1699;SDS011;847;48.058;7.810;2022-11-30T04:09:19;14.93;;;11.63;;
1699;SDS011;847;48.058;7.810;2022-11-30T04:14:40;15.30;;;12.10;;
1699;SDS011;847;48.058;7.810;2022-11-30T04:17:08;14.87;;;12.10;;
1699;SDS011;847;48.058;7.810;2022-11-30T04:27:35;13.87;;;10.90;;
1699;SDS011;847;48.058;7.810;2022-11-30T04:36:02;15.83;;;11.57;;
1699;SDS011;847;48.058;7.810;2022-11-30T04:38:31;16.17;;;11.37;;
1699;SDS011;847;48.058;7.810;2022-11-30T04:41:04;15.43;;;10.53;;
1699;SDS011;847;48.058;7.810;2022-11-30T04:54:13;16.80;;;11.60;;
1699;SDS011;847;48.058;7.810;2022-11-30T04:56:40;15.40;;;11.67;;
1699;SDS011;847;48.058;7.810;2022-11-30T04:59:06;15.30;;;12.10;;
1699;SDS011;847;48.058;7.810;2022-11-30T05:01:48;12.87;;;10.63;;
1699;SDS011;847;48.058;7.810;2022-11-30T05:04:15;14.90;;;10.90;;
1699;SDS011;847;48.058;7.810;2022-11-30T05:06:42;14.80;;;11.17;;
1699;SDS011;847;48.058;7.810;2022-11-30T05:11:46;15.40;;;11.30;;
1699;SDS011;847;48.058;7.810;2022-11-30T05:14:13;16.97;;;12.80;;
1699;SDS011;847;48.058;7.810;2022-11-30T05:16:41;14.47;;;11.33;;
1699;SDS011;847;48.058;7.810;2022-11-30T05:19:34;12.17;;;10.07;;
1699;SDS011;847;48.058;7.810;2022-11-30T05:22:01;14.17;;;10.30;;
1699;SDS011;847;48.058;7.810;2022-11-30T05:24:28;13.73;;;9.47;;
1699;SDS011;847;48.058;7.810;2022-11-30T05:26:56;14.90;;;10.10;;
1699;SDS011;847;48.058;7.810;2022-11-30T05:29:25;12.77;;;9.57;;
1699;SDS011;847;48.058;7.810;2022-11-30T05:31:53;13.77;;;11.10;;
1699;SDS011;847;48.058;7.810;2022-11-30T05:34:25;9.87;;;8.40;;
1699;SDS011;847;48.058;7.810;2022-11-30T05:44:36;12.93;;;9.50;;
1699;SDS011;847;48.058;7.810;2022-11-30T05:47:18;11.80;;;8.37;;
1699;SDS011;847;48.058;7.810;2022-11-30T05:49:45;10.60;;;7.97;;
1699;SDS011;847;48.058;7.810;2022-11-30T06:00:00;10.10;;;7.40;;
1699;SDS011;847;48.058;7.810;2022-11-30T06:02:27;8.20;;;7.20;;
1699;SDS011;847;48.058;7.810;2022-11-30T06:04:54;9.27;;;7.73;;
1699;SDS011;847;48.058;7.810;2022-11-30T06:07:21;10.73;;;8.70;;
1699;SDS011;847;48.058;7.810;2022-11-30T06:09:48;14.10;;;9.30;;
1699;SDS011;847;48.058;7.810;2022-11-30T06:12:15;11.90;;;8.90;;
1699;SDS011;847;48.058;7.810;2022-11-30T06:14:42;14.73;;;10.67;;
1699;SDS011;847;48.058;7.810;2022-11-30T06:17:11;16.00;;;11.03;;
1699;SDS011;847;48.058;7.810;2022-11-30T06:19:38;11.43;;;9.00;;
1699;SDS011;847;48.058;7.810;2022-11-30T06:24:40;14.03;;;9.70;;
1699;SDS011;847;48.058;7.810;2022-11-30T06:27:07;18.50;;;11.00;;
1699;SDS011;847;48.058;7.810;2022-11-30T06:29:34;15.30;;;11.53;;
1699;SDS011;847;48.058;7.810;2022-11-30T06:32:01;16.93;;;10.60;;
1699;SDS011;847;48.058;7.810;2022-11-30T06:34:33;16.17;;;11.90;;
1699;SDS011;847;48.058;7.810;2022-11-30T06:37:00;16.70;;;12.10;;
1699;SDS011;847;48.058;7.810;2022-11-30T06:39:27;18.63;;;12.33;;
1699;SDS011;847;48.058;7.810;2022-11-30T06:41:54;17.87;;;11.77;;
1699;SDS011;847;48.058;7.810;2022-11-30T06:44:21;21.07;;;13.30;;
1699;SDS011;847;48.058;7.810;2022-11-30T06:46:48;17.90;;;12.90;;
1699;SDS011;847;48.058;7.810;2022-11-30T06:49:15;18.47;;;12.47;;
1699;SDS011;847;48.058;7.810;2022-11-30T06:51:43;17.83;;;12.90;;
1699;SDS011;847;48.058;7.810;2022-11-30T06:54:10;31.30;;;14.07;;
1699;SDS011;847;48.058;7.810;2022-11-30T06:56:37;23.00;;;14.20;;
1699;SDS011;847;48.058;7.810;2022-11-30T06:59:04;19.00;;;13.80;;
1699;SDS011;847;48.058;7.810;2022-11-30T07:01:31;20.37;;;14.27;;
1699;SDS011;847;48.058;7.810;2022-11-30T07:03:58;26.13;;;15.53;;
1699;SDS011;847;48.058;7.810;2022-11-30T07:06:25;21.60;;;14.57;;
1699;SDS011;847;48.058;7.810;2022-11-30T07:08:53;22.07;;;14.93;;
1699;SDS011;847;48.058;7.810;2022-11-30T07:11:20;20.93;;;13.80;;
1699;SDS011;847;48.058;7.810;2022-11-30T07:13:47;20.60;;;14.17;;
1699;SDS011;847;48.058;7.810;2022-11-30T07:16:14;18.37;;;14.20;;
1699;SDS011;847;48.058;7.810;2022-11-30T07:18:40;30.77;;;13.93;;
1699;SDS011;847;48.058;7.810;2022-11-30T07:21:08;23.97;;;14.77;;
1699;SDS011;847;48.058;7.810;2022-11-30T07:23:35;19.77;;;14.53;;
1699;SDS011;847;48.058;7.810;2022-11-30T07:26:20;21.77;;;13.20;;
1699;SDS011;847;48.058;7.810;2022-11-30T07:28:47;21.93;;;14.47;;
1699;SDS011;847;48.058;7.810;2022-11-30T07:31:19;27.63;;;17.43;;
1699;SDS011;847;48.058;7.810;2022-11-30T07:33:47;26.03;;;15.80;;
1699;SDS011;847;48.058;7.810;2022-11-30T07:36:15;24.33;;;14.93;;
1699;SDS011;847;48.058;7.810;2022-11-30T07:38:42;26.63;;;15.87;;
1699;SDS011;847;48.058;7.810;2022-11-30T07:41:09;21.07;;;14.27;;
1699;SDS011;847;48.058;7.810;2022-11-30T07:43:38;20.10;;;13.57;;
1699;SDS011;847;48.058;7.810;2022-11-30T07:46:06;23.40;;;12.73;;
1699;SDS011;847;48.058;7.810;2022-11-30T07:48:34;25.43;;;14.17;;
1699;SDS011;847;48.058;7.810;2022-11-30T07:51:02;20.27;;;13.73;;
1699;SDS011;847;48.058;7.810;2022-11-30T07:53:44;23.30;;;14.33;;
1699;SDS011;847;48.058;7.810;2022-11-30T07:56:13;23.60;;;14.87;;
1699;SDS011;847;48.058;7.810;2022-11-30T07:58:42;21.00;;;13.53;;
1699;SDS011;847;48.058;7.810;2022-11-30T08:01:11;26.47;;;15.20;;
1699;SDS011;847;48.058;7.810;2022-11-30T08:03:39;35.07;;;22.67;;
1699;SDS011;847;48.058;7.810;2022-11-30T08:06:07;21.40;;;14.80;;
1699;SDS011;847;48.058;7.810;2022-11-30T08:08:36;22.63;;;14.00;;
1699;SDS011;847;48.058;7.810;2022-11-30T08:11:05;18.03;;;12.77;;
1699;SDS011;847;48.058;7.810;2022-11-30T08:13:34;18.57;;;13.17;;
1699;SDS011;847;48.058;7.810;2022-11-30T08:16:08;17.50;;;11.47;;
1699;SDS011;847;48.058;7.810;2022-11-30T08:18:39;20.20;;;13.63;;
1699;SDS011;847;48.058;7.810;2022-11-30T08:21:07;23.60;;;18.80;;
1699;SDS011;847;48.058;7.810;2022-11-30T08:23:40;23.37;;;14.80;;
1699;SDS011;847;48.058;7.810;2022-11-30T08:26:09;26.90;;;17.10;;
1699;SDS011;847;48.058;7.810;2022-11-30T08:28:39;28.30;;;18.47;;
1699;SDS011;847;48.058;7.810;2022-11-30T08:31:11;26.93;;;18.90;;
1699;SDS011;847;48.058;7.810;2022-11-30T08:33:41;29.57;;;18.97;;
1699;SDS011;847;48.058;7.810;2022-11-30T08:36:17;28.40;;;18.17;;
1699;SDS011;847;48.058;7.810;2022-11-30T08:38:52;34.77;;;20.77;;
1699;SDS011;847;48.058;7.810;2022-11-30T08:41:20;27.57;;;17.93;;
1699;SDS011;847;48.058;7.810;2022-11-30T08:43:48;29.57;;;18.43;;
1699;SDS011;847;48.058;7.810;2022-11-30T08:46:17;28.53;;;18.70;;
1699;SDS011;847;48.058;7.810;2022-11-30T08:48:46;32.17;;;17.80;;
1699;SDS011;847;48.058;7.810;2022-11-30T08:51:14;34.00;;;18.90;;
1699;SDS011;847;48.058;7.810;2022-11-30T08:53:44;31.60;;;19.27;;
1699;SDS011;847;48.058;7.810;2022-11-30T08:56:13;30.30;;;18.50;;
1699;SDS011;847;48.058;7.810;2022-11-30T08:58:41;27.10;;;17.00;;
1699;SDS011;847;48.058;7.810;2022-11-30T09:01:12;34.53;;;21.13;;
1699;SDS011;847;48.058;7.810;2022-11-30T09:03:43;27.60;;;17.33;;
1699;SDS011;847;48.058;7.810;2022-11-30T09:06:12;29.20;;;17.03;;
1699;SDS011;847;48.058;7.810;2022-11-30T09:08:41;31.17;;;18.10;;
1699;SDS011;847;48.058;7.810;2022-11-30T09:13:46;27.60;;;16.50;;
1699;SDS011;847;48.058;7.810;2022-11-30T09:16:14;22.70;;;15.43;;
1699;SDS011;847;48.058;7.810;2022-11-30T09:18:43;31.80;;;17.57;;
1699;SDS011;847;48.058;7.810;2022-11-30T09:21:11;29.60;;;18.50;;
1699;SDS011;847;48.058;7.810;2022-11-30T09:23:39;29.40;;;17.20;;
1699;SDS011;847;48.058;7.810;2022-11-30T09:26:07;31.97;;;16.60;;
1699;SDS011;847;48.058;7.810;2022-11-30T09:28:35;27.70;;;17.50;;
1699;SDS011;847;48.058;7.810;2022-11-30T09:31:04;31.43;;;19.60;;
1699;SDS011;847;48.058;7.810;2022-11-30T09:33:32;23.67;;;15.50;;
1699;SDS011;847;48.058;7.810;2022-11-30T09:36:01;27.63;;;17.10;;
1699;SDS011;847;48.058;7.810;2022-11-30T09:38:31;28.57;;;16.80;;
1699;SDS011;847;48.058;7.810;2022-11-30T09:40:59;28.40;;;17.13;;
1699;SDS011;847;48.058;7.810;2022-11-30T09:43:29;28.30;;;17.20;;
1699;SDS011;847;48.058;7.810;2022-11-30T09:46:03;25.70;;;15.50;;
1699;SDS011;847;48.058;7.810;2022-11-30T09:53:56;22.10;;;14.03;;
1699;SDS011;847;48.058;7.810;2022-11-30T09:56:26;25.40;;;16.20;;
1699;SDS011;847;48.058;7.810;2022-11-30T09:58:59;24.57;;;15.20;;
1699;SDS011;847;48.058;7.810;2022-11-30T10:01:30;24.57;;;15.63;;
1699;SDS011;847;48.058;7.810;2022-11-30T10:03:58;25.73;;;15.63;;
1699;SDS011;847;48.058;7.810;2022-11-30T10:06:45;23.60;;;15.10;;
1699;SDS011;847;48.058;7.810;2022-11-30T10:09:25;24.40;;;16.10;;
1699;SDS011;847;48.058;7.810;2022-11-30T10:12:04;26.20;;;16.70;;
1699;SDS011;847;48.058;7.810;2022-11-30T10:14:41;24.40;;;15.43;;
1699;SDS011;847;48.058;7.810;2022-11-30T10:17:22;20.53;;;13.60;;
1699;SDS011;847;48.058;7.810;2022-11-30T10:20:01;17.80;;;13.03;;
1699;SDS011;847;48.058;7.810;2022-11-30T10:22:50;23.90;;;12.80;;
1699;SDS011;847;48.058;7.810;2022-11-30T10:25:35;20.23;;;12.37;;
1699;SDS011;847;48.058;7.810;2022-11-30T10:28:10;20.20;;;13.60;;
1699;SDS011;847;48.058;7.810;2022-11-30T10:30:42;15.53;;;11.73;;
1699;SDS011;847;48.058;7.810;2022-11-30T10:33:11;20.63;;;11.50;;
1699;SDS011;847;48.058;7.810;2022-11-30T10:35:43;18.37;;;11.97;;
1699;SDS011;847;48.058;7.810;2022-11-30T10:38:13;17.83;;;12.50;;
1699;SDS011;847;48.058;7.810;2022-11-30T10:40:50;15.70;;;10.63;;
1699;SDS011;847;48.058;7.810;2022-11-30T10:43:22;14.83;;;9.57;;
1699;SDS011;847;48.058;7.810;2022-11-30T10:45:55;14.77;;;10.10;;
1699;SDS011;847;48.058;7.810;2022-11-30T10:48:26;12.23;;;10.90;;
1699;SDS011;847;48.058;7.810;2022-11-30T10:50:59;14.33;;;11.50;;
1699;SDS011;847;48.058;7.810;2022-11-30T10:53:28;11.40;;;8.87;;
1699;SDS011;847;48.058;7.810;2022-11-30T10:56:00;13.90;;;10.40;;
1699;SDS011;847;48.058;7.810;2022-11-30T10:58:33;7.47;;;6.60;;
1699;SDS011;847;48.058;7.810;2022-11-30T11:01:05;8.87;;;6.23;;
1699;SDS011;847;48.058;7.810;2022-11-30T11:03:34;6.00;;;4.47;;
1699;SDS011;847;48.058;7.810;2022-11-30T11:06:06;5.20;;;4.70;;
1699;SDS011;847;48.058;7.810;2022-11-30T11:08:40;5.17;;;4.00;;
1699;SDS011;847;48.058;7.810;2022-11-30T11:11:29;6.17;;;4.87;;
1699;SDS011;847;48.058;7.810;2022-11-30T11:14:08;5.27;;;4.53;;
1699;SDS011;847;48.058;7.810;2022-11-30T11:16:53;4.00;;;3.60;;
1699;SDS011;847;48.058;7.810;2022-11-30T11:19:37;4.83;;;4.03;;
1699;SDS011;847;48.058;7.810;2022-11-30T11:22:06;5.00;;;4.60;;
1699;SDS011;847;48.058;7.810;2022-11-30T11:24:42;4.07;;;3.67;;
1699;SDS011;847;48.058;7.810;2022-11-30T11:27:24;4.57;;;4.17;;
1699;SDS011;847;48.058;7.810;2022-11-30T11:29:56;4.80;;;4.30;;
1699;SDS011;847;48.058;7.810;2022-11-30T11:32:30;5.27;;;4.57;;
1699;SDS011;847;48.058;7.810;2022-11-30T11:34:58;4.10;;;3.70;;
1699;SDS011;847;48.058;7.810;2022-11-30T11:37:27;4.97;;;4.37;;
1699;SDS011;847;48.058;7.810;2022-11-30T11:39:58;3.90;;;3.20;;
1699;SDS011;847;48.058;7.810;2022-11-30T11:42:31;5.50;;;4.40;;
1699;SDS011;847;48.058;7.810;2022-11-30T11:45:02;5.87;;;4.37;;
1699;SDS011;847;48.058;7.810;2022-11-30T11:47:35;4.50;;;4.10;;
1699;SDS011;847;48.058;7.810;2022-11-30T11:53:05;3.20;;;2.90;;
1699;SDS011;847;48.058;7.810;2022-11-30T11:55:48;4.03;;;3.50;;
1699;SDS011;847;48.058;7.810;2022-11-30T11:58:25;3.43;;;3.13;;
1699;SDS011;847;48.058;7.810;2022-11-30T12:01:01;5.60;;;3.80;;
1699;SDS011;847;48.058;7.810;2022-11-30T12:08:51;4.20;;;3.63;;
1699;SDS011;847;48.058;7.810;2022-11-30T12:11:22;4.70;;;3.90;;
1699;SDS011;847;48.058;7.810;2022-11-30T12:13:54;4.30;;;3.90;;
1699;SDS011;847;48.058;7.810;2022-11-30T12:16:25;4.77;;;3.47;;
1699;SDS011;847;48.058;7.810;2022-11-30T12:19:05;4.43;;;3.80;;
1699;SDS011;847;48.058;7.810;2022-11-30T12:21:43;5.43;;;3.47;;
1699;SDS011;847;48.058;7.810;2022-11-30T12:27:01;4.30;;;3.90;;
1699;SDS011;847;48.058;7.810;2022-11-30T12:29:37;4.87;;;3.87;;
1699;SDS011;847;48.058;7.810;2022-11-30T12:32:17;4.30;;;3.90;;
1699;SDS011;847;48.058;7.810;2022-11-30T12:34:56;6.53;;;3.73;;
1699;SDS011;847;48.058;7.810;2022-11-30T12:37:35;5.30;;;3.43;;
1699;SDS011;847;48.058;7.810;2022-11-30T12:40:19;6.60;;;4.00;;
1699;SDS011;847;48.058;7.810;2022-11-30T12:42:57;4.40;;;3.23;;
1699;SDS011;847;48.058;7.810;2022-11-30T12:45:55;3.90;;;3.50;;
1699;SDS011;847;48.058;7.810;2022-11-30T12:48:30;4.70;;;4.20;;
1699;SDS011;847;48.058;7.810;2022-11-30T12:51:10;5.50;;;4.30;;
1699;SDS011;847;48.058;7.810;2022-11-30T13:07:05;3.33;;;2.93;;
1699;SDS011;847;48.058;7.810;2022-11-30T13:09:38;5.60;;;3.70;;
1699;SDS011;847;48.058;7.810;2022-11-30T13:12:12;4.47;;;3.53;;
1699;SDS011;847;48.058;7.810;2022-11-30T13:14:49;5.10;;;4.57;;
1699;SDS011;847;48.058;7.810;2022-11-30T13:17:23;3.10;;;2.80;;
1699;SDS011;847;48.058;7.810;2022-11-30T13:25:06;4.63;;;3.27;;
1699;SDS011;847;48.058;7.810;2022-11-30T13:27:43;3.87;;;2.90;;
1699;SDS011;847;48.058;7.810;2022-11-30T13:30:21;5.53;;;3.83;;
1699;SDS011;847;48.058;7.810;2022-11-30T13:32:56;4.40;;;3.80;;
1699;SDS011;847;48.058;7.810;2022-11-30T13:36:02;4.83;;;3.53;;
1699;SDS011;847;48.058;7.810;2022-11-30T13:38:30;4.27;;;3.70;;
1699;SDS011;847;48.058;7.810;2022-11-30T13:41:00;4.77;;;4.27;;
1699;SDS011;847;48.058;7.810;2022-11-30T13:43:44;4.10;;;3.20;;
1699;SDS011;847;48.058;7.810;2022-11-30T13:46:13;8.53;;;4.27;;
1699;SDS011;847;48.058;7.810;2022-11-30T13:48:43;5.57;;;3.60;;
1699;SDS011;847;48.058;7.810;2022-11-30T13:51:10;5.50;;;4.47;;
1699;SDS011;847;48.058;7.810;2022-11-30T13:53:37;6.00;;;4.50;;
1699;SDS011;847;48.058;7.810;2022-11-30T13:56:29;4.70;;;4.10;;
1699;SDS011;847;48.058;7.810;2022-11-30T14:08:08;5.03;;;3.80;;
1699;SDS011;847;48.058;7.810;2022-11-30T14:10:51;7.27;;;3.47;;
1699;SDS011;847;48.058;7.810;2022-11-30T14:13:26;4.13;;;3.53;;
1699;SDS011;847;48.058;7.810;2022-11-30T14:15:58;4.13;;;3.30;;
1699;SDS011;847;48.058;7.810;2022-11-30T14:18:32;4.23;;;3.80;;
1699;SDS011;847;48.058;7.810;2022-11-30T14:21:22;4.10;;;3.67;;
1699;SDS011;847;48.058;7.810;2022-11-30T14:23:55;6.07;;;5.13;;
1699;SDS011;847;48.058;7.810;2022-11-30T14:26:33;6.77;;;6.00;;
1699;SDS011;847;48.058;7.810;2022-11-30T14:29:12;7.90;;;6.37;;
1699;SDS011;847;48.058;7.810;2022-11-30T14:31:45;9.60;;;7.60;;
1699;SDS011;847;48.058;7.810;2022-11-30T14:34:22;11.33;;;8.57;;
1699;SDS011;847;48.058;7.810;2022-11-30T14:36:53;10.93;;;8.40;;
1699;SDS011;847;48.058;7.810;2022-11-30T14:39:27;11.10;;;8.80;;
1699;SDS011;847;48.058;7.810;2022-11-30T14:44:35;10.10;;;7.93;;
1699;SDS011;847;48.058;7.810;2022-11-30T14:47:12;20.10;;;9.33;;
1699;SDS011;847;48.058;7.810;2022-11-30T14:49:43;10.33;;;8.77;;
1699;SDS011;847;48.058;7.810;2022-11-30T14:52:13;11.17;;;8.20;;
1699;SDS011;847;48.058;7.810;2022-11-30T14:54:49;11.57;;;8.97;;
1699;SDS011;847;48.058;7.810;2022-11-30T14:57:26;10.70;;;8.40;;
1699;SDS011;847;48.058;7.810;2022-11-30T14:59:59;9.80;;;8.07;;
1699;SDS011;847;48.058;7.810;2022-11-30T15:02:29;9.60;;;7.60;;
1699;SDS011;847;48.058;7.810;2022-11-30T15:05:02;11.60;;;8.40;;
1699;SDS011;847;48.058;7.810;2022-11-30T15:07:33;10.67;;;8.20;;
1699;SDS011;847;48.058;7.810;2022-11-30T15:10:03;9.17;;;7.97;;
1699;SDS011;847;48.058;7.810;2022-11-30T15:12:33;10.07;;;8.80;;
1699;SDS011;847;48.058;7.810;2022-11-30T15:15:11;9.53;;;8.53;;
1699;SDS011;847;48.058;7.810;2022-11-30T15:17:50;8.90;;;7.43;;
1699;SDS011;847;48.058;7.810;2022-11-30T15:20:23;11.80;;;8.53;;
1699;SDS011;847;48.058;7.810;2022-11-30T15:22:53;11.10;;;9.90;;
1699;SDS011;847;48.058;7.810;2022-11-30T15:25:24;10.80;;;8.37;;
1699;SDS011;847;48.058;7.810;2022-11-30T15:27:55;12.17;;;8.63;;
1699;SDS011;847;48.058;7.810;2022-11-30T15:30:25;9.00;;;8.10;;
1699;SDS011;847;48.058;7.810;2022-11-30T15:32:53;10.83;;;9.73;;
1699;SDS011;847;48.058;7.810;2022-11-30T15:35:23;13.27;;;9.20;;
1699;SDS011;847;48.058;7.810;2022-11-30T15:37:51;9.93;;;8.93;;
1699;SDS011;847;48.058;7.810;2022-11-30T15:42:54;10.70;;;9.00;;
1699;SDS011;847;48.058;7.810;2022-11-30T15:45:23;11.53;;;7.93;;
1699;SDS011;847;48.058;7.810;2022-11-30T15:47:52;9.47;;;8.40;;
1699;SDS011;847;48.058;7.810;2022-11-30T15:53:25;6.67;;;5.80;;
1699;SDS011;847;48.058;7.810;2022-11-30T15:58:36;10.90;;;9.70;;
1699;SDS011;847;48.058;7.810;2022-11-30T16:01:12;9.63;;;7.90;;
1699;SDS011;847;48.058;7.810;2022-11-30T16:03:58;8.67;;;7.77;;
1699;SDS011;847;48.058;7.810;2022-11-30T16:06:27;11.63;;;8.57;;
1699;SDS011;847;48.058;7.810;2022-11-30T16:08:58;12.40;;;8.10;;
1699;SDS011;847;48.058;7.810;2022-11-30T16:11:45;10.33;;;8.20;;
1699;SDS011;847;48.058;7.810;2022-11-30T16:14:23;12.77;;;8.70;;
1699;SDS011;847;48.058;7.810;2022-11-30T16:16:51;9.97;;;8.07;;
1699;SDS011;847;48.058;7.810;2022-11-30T16:19:22;10.20;;;6.47;;
1699;SDS011;847;48.058;7.810;2022-11-30T16:21:50;5.20;;;4.50;;
1699;SDS011;847;48.058;7.810;2022-11-30T16:24:18;4.10;;;3.60;;
1699;SDS011;847;48.058;7.810;2022-11-30T16:26:46;3.27;;;2.97;;
1699;SDS011;847;48.058;7.810;2022-11-30T16:29:16;3.13;;;2.83;;
1699;SDS011;847;48.058;7.810;2022-11-30T16:31:46;2.70;;;2.47;;
1699;SDS011;847;48.058;7.810;2022-11-30T16:34:15;2.90;;;2.40;;
1699;SDS011;847;48.058;7.810;2022-11-30T16:36:42;3.47;;;2.43;;
1699;SDS011;847;48.058;7.810;2022-11-30T16:39:09;2.83;;;2.20;;
1699;SDS011;847;48.058;7.810;2022-11-30T16:41:39;3.60;;;1.50;;
1699;SDS011;847;48.058;7.810;2022-11-30T16:44:09;2.17;;;1.73;;
1699;SDS011;847;48.058;7.810;2022-11-30T16:49:13;4.40;;;3.00;;
1699;SDS011;847;48.058;7.810;2022-11-30T16:51:41;2.83;;;2.30;;
1699;SDS011;847;48.058;7.810;2022-11-30T16:54:09;2.13;;;1.90;;
1699;SDS011;847;48.058;7.810;2022-11-30T16:59:13;2.03;;;1.70;;
1699;SDS011;847;48.058;7.810;2022-11-30T17:01:41;1.60;;;1.50;;
1699;SDS011;847;48.058;7.810;2022-11-30T17:04:11;2.70;;;1.90;;
1699;SDS011;847;48.058;7.810;2022-11-30T17:06:47;3.23;;;1.63;;
1699;SDS011;847;48.058;7.810;2022-11-30T17:09:16;1.80;;;1.70;;
1699;SDS011;847;48.058;7.810;2022-11-30T17:11:54;1.43;;;1.33;;
1699;SDS011;847;48.058;7.810;2022-11-30T17:17:10;2.37;;;1.70;;
1699;SDS011;847;48.058;7.810;2022-11-30T17:19:38;2.30;;;2.10;;
1699;SDS011;847;48.058;7.810;2022-11-30T17:22:05;1.50;;;1.40;;
1699;SDS011;847;48.058;7.810;2022-11-30T17:24:33;1.90;;;1.70;;
1699;SDS011;847;48.058;7.810;2022-11-30T17:27:04;2.27;;;1.80;;
1699;SDS011;847;48.058;7.810;2022-11-30T17:32:08;2.73;;;1.90;;
1699;SDS011;847;48.058;7.810;2022-11-30T17:34:35;2.20;;;1.73;;
1699;SDS011;847;48.058;7.810;2022-11-30T17:37:03;4.97;;;2.40;;
1699;SDS011;847;48.058;7.810;2022-11-30T17:39:35;4.20;;;2.40;;
1699;SDS011;847;48.058;7.810;2022-11-30T17:42:02;2.90;;;2.40;;
1699;SDS011;847;48.058;7.810;2022-11-30T17:44:31;3.57;;;2.13;;
1699;SDS011;847;48.058;7.810;2022-11-30T17:46:59;3.60;;;2.30;;
1699;SDS011;847;48.058;7.810;2022-11-30T17:49:28;3.57;;;2.53;;
1699;SDS011;847;48.058;7.810;2022-11-30T17:51:56;4.73;;;2.73;;
1699;SDS011;847;48.058;7.810;2022-11-30T17:54:26;4.30;;;3.07;;